Time;durP1;ratioP1;P1;durP2;ratioP2;P2;SDS_P1;SDS_P2;PMS_P1;PMS_P2;Temp;Humidity;BMP_temperature;BMP_pressure;BME280_temperature;BME280_humidity;BME280_pressure;Samples;Min_cycle;Max_cycle;Signal;HPM_P1;HPM_P2
2023/04/06 00:01:16;;;;;;;10.48;6.57;;;;;;;4.21;53.67;99447.34;3165599;28;20068;-66
2023/04/06 00:02:48;;;;;;;;;;;;;;;4.51;53.75;99503.28;3165766;28;20520;-66
2023/04/06 00:04:20;;;;;;;9.30;5.88;;;;;;;4.52;53.88;99507.53;3165056;28;20300;-66
2023/04/06 00:05:52;;;;;;;9.85;6.32;;;;;;;4.52;53.76;99509.28;3165305;28;20124;-66
2023/04/06 00:07:23;;;;;;;12.43;7.25;;;;;;;4.54;53.80;99495.47;3165291;28;20100;-66
2023/04/06 00:08:56;;;;;;;9.30;6.15;;;;;;;4.55;53.66;99496.28;3164458;28;20104;-64
2023/04/06 00:10:27;;;;;;;8.55;6.05;;;;;;;4.48;53.74;99490.47;3152821;28;20051;-66
2023/04/06 00:12:00;;;;;;;10.07;6.13;;;;;;;4.22;53.71;99444.69;3152829;28;20552;-65
2023/04/06 00:13:31;;;;;;;10.53;6.33;;;;;;;4.50;53.82;99495.59;3156457;28;20079;-65
2023/04/06 00:15:05;;;;;;;11.02;7.03;;;;;;;4.50;53.77;99488.69;3164311;28;20382;-65
2023/04/06 00:16:38;;;;;;;9.25;5.90;;;;;;;4.49;53.82;99499.03;3165230;28;20055;-65
2023/04/06 00:18:10;;;;;;;10.35;6.53;;;;;;;4.48;53.83;99499.94;3165263;28;20055;-65
2023/04/06 00:19:42;;;;;;;10.25;6.03;;;;;;;4.48;53.79;99494.78;3163236;28;20108;-65
2023/04/06 00:21:15;;;;;;;9.48;5.55;;;;;;;4.47;53.79;99487.94;3161364;28;20132;-66
2023/04/06 00:22:45;;;;;;;9.52;5.75;;;;;;;4.50;53.83;99487.84;3165211;28;20083;-66
2023/04/06 00:24:17;;;;;;;10.07;6.25;;;;;;;4.49;53.75;99496.47;3165144;28;20066;-66
2023/04/06 00:25:50;;;;;;;10.68;6.43;;;;;;;4.48;53.58;99489.63;3165259;28;20051;-66
2023/04/06 00:27:21;;;;;;;9.48;6.28;;;;;;;4.45;53.65;99479.38;3164786;28;20135;-66
2023/04/06 00:28:53;;;;;;;10.25;6.15;;;;;;;4.49;53.68;99488.72;3158880;28;20066;-66
2023/04/06 00:30:25;;;;;;;10.57;6.43;;;;;;;4.48;53.67;99493.03;3163600;28;20048;-69
2023/04/06 00:31:58;;;;;;;11.15;6.25;;;;;;;4.47;53.63;99483.63;3158999;28;20047;-66
2023/04/06 00:33:30;;;;;;;8.68;5.88;;;;;;;4.47;53.74;99487.94;3164933;28;20413;-65
2023/04/06 00:35:03;;;;;;;11.07;6.40;;;;;;;4.48;53.78;99479.31;3162336;28;20059;-65
2023/04/06 00:36:34;;;;;;;9.73;6.03;;;;;;;4.48;53.62;99487.88;3152709;28;20139;-65
2023/04/06 00:38:06;;;;;;;10.27;6.20;;;;;;;4.48;53.49;99476.72;3153548;28;20056;-65
2023/04/06 00:39:37;;;;;;;8.02;5.28;;;;;;;4.50;53.43;99491.28;3164691;28;20116;-65
2023/04/06 00:41:09;;;;;;;11.40;5.65;;;;;;;4.50;53.49;99480.97;3165018;28;20109;-65
2023/04/06 00:42:42;;;;;;;9.13;5.78;;;;;;;4.48;53.43;99480.13;3163583;28;20059;-65
2023/04/06 00:44:13;;;;;;;8.20;5.10;;;;;;;4.42;53.43;99475.16;3164025;28;20047;-65
2023/04/06 00:45:45;;;;;;;9.15;5.07;;;;;;;4.45;53.32;99476.81;3161008;28;20138;-65
2023/04/06 00:47:18;;;;;;;10.32;6.40;;;;;;;4.41;53.27;99476.03;3161320;28;20657;-66
2023/04/06 00:48:50;;;;;;;9.18;5.93;;;;;;;4.39;53.34;99474.38;3161788;28;20055;-66
2023/04/06 00:50:22;;;;;;;14.18;6.15;;;;;;;4.37;53.18;99479.56;3164965;28;20545;-66
2023/04/06 00:51:54;;;;;;;7.07;5.10;;;;;;;4.32;53.34;99478.84;3164499;28;20132;-66
2023/04/06 00:53:26;;;;;;;8.38;5.15;;;;;;;4.26;53.25;99472.13;3164698;28;20079;-66
2023/04/06 00:54:58;;;;;;;12.93;5.90;;;;;;;4.23;53.44;99474.78;3165058;28;20151;-66
2023/04/06 00:56:29;;;;;;;7.97;5.80;;;;;;;4.24;53.45;99481.59;3164977;28;20051;-66
2023/04/06 00:58:01;;;;;;;10.75;6.57;;;;;;;4.23;53.59;99471.31;3160192;28;20047;-65
2023/04/06 00:59:32;;;;;;;11.38;6.32;;;;;;;4.24;53.55;99466.13;3156391;28;20134;-65
2023/04/06 01:01:04;;;;;;;9.38;6.18;;;;;;;4.24;53.56;99473.88;3164599;28;20048;-65
2023/04/06 01:02:38;;;;;;;8.93;5.90;;;;;;;4.22;53.51;99457.59;3164360;28;20150;-66
2023/04/06 01:04:10;;;;;;;9.50;5.63;;;;;;;4.22;53.47;99465.31;3164765;28;20190;-65
2023/04/06 01:05:42;;;;;;;10.30;5.75;;;;;;;3.82;53.58;99412.19;3165039;28;20051;-65
2023/04/06 01:07:14;;;;;;;9.30;5.88;;;;;;;4.20;53.46;99469.69;3164667;28;20896;-65
2023/04/06 01:08:45;;;;;;;11.60;6.35;;;;;;;4.08;53.44;99439.03;3164885;28;20058;-65
2023/04/06 01:10:24;;;;;;;9.95;5.60;;;;;;;4.19;53.43;99456.81;3152049;28;20162;-65
2023/04/06 01:11:56;;;;;;;7.80;5.18;;;;;;;4.19;53.43;99462.81;3152264;28;20679;-65
2023/04/06 01:13:28;;;;;;;10.57;6.35;;;;;;;4.18;53.47;99455.97;3156527;28;20058;-66
2023/04/06 01:15:00;;;;;;;9.15;5.75;;;;;;;4.18;53.40;99458.56;3163296;28;20055;-65
2023/04/06 01:16:32;;;;;;;8.73;5.75;;;;;;;4.16;53.59;99457.75;3164464;28;20054;-66
2023/04/06 01:18:06;;;;;;;12.48;6.43;;;;;;;4.13;53.52;99455.25;3164940;28;20150;-66
2023/04/06 01:19:40;;;;;;;9.55;5.88;;;;;;;4.12;53.65;99452.72;3162646;28;20133;-66
2023/04/06 01:21:15;;;;;;;;;;;;;;;4.04;53.54;99452.88;3161599;28;20052;-67
2023/04/06 01:22:48;;;;;;;12.60;5.53;;;;;;;3.94;53.78;99435.97;3164624;28;19971;-67
2023/04/06 01:24:19;;;;;;;12.88;6.30;;;;;;;3.99;53.75;99441.84;3164482;28;20047;-67
2023/04/06 01:25:51;;;;;;;9.30;5.82;;;;;;;4.01;53.75;99445.25;3164480;28;20080;-67
2023/04/06 01:27:25;;;;;;;9.95;6.25;;;;;;;4.01;53.78;99443.50;3164199;28;20051;-67
2023/04/06 01:28:57;;;;;;;9.60;5.88;;;;;;;4.01;53.76;99442.66;3158645;28;20074;-67
2023/04/06 01:30:29;;;;;;;9.93;5.75;;;;;;;3.99;53.85;99441.84;3164556;28;20055;-67
2023/04/06 01:32:04;;;;;;;8.07;5.82;;;;;;;3.97;53.78;99441.06;3164678;28;20047;-67
2023/04/06 01:33:36;;;;;;;9.38;5.47;;;;;;;3.98;53.77;99440.16;3163761;28;20044;-67
2023/04/06 01:35:09;;;;;;;9.90;6.18;;;;;;;3.97;53.56;99436.75;3162693;28;20044;-67
2023/04/06 01:36:41;;;;;;;9.15;6.15;;;;;;;3.98;53.74;99433.28;3164648;28;20060;-67
2023/04/06 01:38:15;;;;;;;10.05;6.05;;;;;;;4.00;53.71;99430.69;3164417;28;20055;-67
2023/04/06 01:39:47;;;;;;;10.07;5.47;;;;;;;4.01;53.77;99435.78;3164150;28;20057;-67
2023/04/06 01:41:19;;;;;;;10.70;5.95;;;;;;;4.01;53.66;99429.78;3157981;28;20052;-67
2023/04/06 01:42:49;;;;;;;9.05;5.68;;;;;;;4.01;53.61;99434.94;3164002;28;20051;-67
2023/04/06 01:44:21;;;;;;;12.80;6.50;;;;;;;4.02;53.70;99424.59;3155264;28;20086;-66
2023/04/06 01:46:02;;;;;;;11.18;6.65;;;;;;;4.02;53.58;99428.88;3165253;28;20055;-67
2023/04/06 01:47:33;;;;;;;10.43;6.25;;;;;;;4.03;53.66;99435.75;3151786;28;20517;-67
2023/04/06 01:49:06;;;;;;;10.35;6.10;;;;;;;4.04;53.69;99424.56;3164367;28;20115;-67
2023/04/06 01:50:36;;;;;;;10.82;6.68;;;;;;;4.01;53.73;99424.63;3164069;28;20573;-67
2023/04/06 01:52:09;;;;;;;11.25;6.28;;;;;;;4.01;53.68;99428.03;3164314;28;20146;-66
2023/04/06 01:53:41;;;;;;;11.10;6.22;;;;;;;3.99;53.80;99418.66;3164188;28;20043;-66
2023/04/06 01:55:14;;;;;;;8.60;5.88;;;;;;;4.00;53.69;99415.22;3164396;28;20886;-65
2023/04/06 01:56:46;;;;;;;9.00;6.10;;;;;;;4.03;53.84;99415.13;3164270;28;20048;-66
2023/04/06 01:58:17;;;;;;;9.82;6.22;;;;;;;4.01;53.73;99412.59;3157682;28;20079;-65
2023/04/06 01:59:49;;;;;;;11.93;6.60;;;;;;;4.04;53.78;99409.09;3161259;28;20132;-65
2023/04/06 02:01:21;;;;;;;10.18;6.30;;;;;;;4.01;53.79;99406.59;3166618;28;20524;-66
2023/04/06 02:02:52;;;;;;;10.18;6.32;;;;;;;4.00;53.75;99410.06;3166880;28;20052;-66
2023/04/06 02:04:24;;;;;;;9.27;6.05;;;;;;;3.98;53.83;99407.50;3167022;28;20094;-66
2023/04/06 02:05:55;;;;;;;12.63;6.53;;;;;;;3.95;54.03;99406.75;3167134;28;20051;-66
2023/04/06 02:07:27;;;;;;;12.45;6.63;;;;;;;3.91;54.13;99407.72;3166602;28;20444;-66
2023/04/06 02:09:00;;;;;;;9.20;6.28;;;;;;;3.85;54.31;99406.97;3166745;28;20048;-66
2023/04/06 02:10:31;;;;;;;12.82;7.28;;;;;;;3.84;54.35;99412.97;3166659;28;20052;-66
2023/04/06 02:12:04;;;;;;;11.23;6.60;;;;;;;3.82;54.39;99411.34;3167064;28;21071;-66
2023/04/06 02:13:36;;;;;;;12.48;7.07;;;;;;;3.78;54.35;99415.72;3157437;28;20044;-67
2023/04/06 02:15:08;;;;;;;11.20;7.03;;;;;;;3.76;54.58;99407.19;3166457;28;20131;-67
2023/04/06 02:16:40;;;;;;;10.68;6.40;;;;;;;3.72;54.75;99408.13;3166755;28;20051;-66
2023/04/06 02:18:11;;;;;;;10.80;6.95;;;;;;;3.72;54.73;99413.28;3166552;28;20587;-67
2023/04/06 02:19:43;;;;;;;11.15;7.10;;;;;;;3.73;54.89;99417.56;3164217;28;20062;-66
2023/04/06 02:21:19;;;;;;;11.93;7.25;;;;;;;3.69;54.97;99413.34;3163043;28;20043;-65
2023/04/06 02:22:50;;;;;;;13.70;7.45;;;;;;;3.68;55.06;99418.56;3166819;28;20047;-65
2023/04/06 02:24:24;;;;;;;11.95;7.07;;;;;;;3.67;54.97;99416.84;3166528;28;20076;-65
2023/04/06 02:25:56;;;;;;;11.85;7.13;;;;;;;3.65;55.13;99416.88;3166536;28;20486;-66
2023/04/06 02:27:27;;;;;;;14.77;7.22;;;;;;;3.58;55.26;99405.03;3166732;28;20047;-66
2023/04/06 02:28:59;;;;;;;10.98;6.95;;;;;;;3.64;55.31;99413.47;3160420;27;20100;-66
2023/04/06 02:30:32;;;;;;;12.00;6.63;;;;;;;3.63;55.23;99416.06;3166408;28;20066;-65
2023/04/06 02:32:04;;;;;;;10.52;6.70;;;;;;;3.60;55.28;99424.72;3166725;28;20047;-66
2023/04/06 02:33:35;;;;;;;11.45;7.05;;;;;;;3.55;55.32;99412.81;3166187;28;20048;-66
2023/04/06 02:35:08;;;;;;;12.82;6.63;;;;;;;3.60;55.41;99423.88;3163423;28;20048;-65
2023/04/06 02:36:39;;;;;;;13.02;7.40;;;;;;;3.57;55.42;99423.94;3153864;28;20397;-65
2023/04/06 02:38:11;;;;;;;11.48;7.05;;;;;;;3.58;55.39;99425.63;3161425;28;20119;-63
2023/04/06 02:39:45;;;;;;;10.15;6.55;;;;;;;3.60;55.48;99434.16;3155708;28;20086;-66
2023/04/06 02:41:15;;;;;;;11.60;7.32;;;;;;;3.59;55.46;99428.19;3165828;28;20052;-66
2023/04/06 02:42:47;;;;;;;12.50;7.40;;;;;;;3.62;55.35;99429.84;3164077;28;20543;-64
2023/04/06 02:44:19;;;;;;;12.32;7.40;;;;;;;3.60;55.44;99426.44;3165831;28;20047;-65
2023/04/06 02:45:50;;;;;;;13.95;7.82;;;;;;;3.61;55.34;99430.72;3166070;28;20063;-65
2023/04/06 02:47:22;;;;;;;11.38;7.32;;;;;;;3.59;55.33;99432.47;3166042;28;20083;-65
2023/04/06 02:48:53;;;;;;;12.95;7.03;;;;;;;3.59;55.29;99430.75;3166369;28;20055;-65
2023/04/06 02:50:25;;;;;;;10.50;7.10;;;;;;;3.57;55.48;99431.66;3166201;28;20658;-65
2023/04/06 02:51:56;;;;;;;11.02;7.40;;;;;;;3.57;55.48;99426.50;3166152;28;20165;-65
2023/04/06 02:53:28;;;;;;;15.88;7.70;;;;;;;3.51;55.45;99421.50;3166317;28;20117;-65
2023/04/06 02:55:00;;;;;;;11.20;7.30;;;;;;;3.56;55.32;99424.81;3166075;28;20836;-66
2023/04/06 02:56:32;;;;;;;12.73;7.35;;;;;;;3.55;55.41;99428.25;3166008;28;20075;-65
2023/04/06 02:58:03;;;;;;;12.52;7.25;;;;;;;3.16;55.50;99361.34;3161559;28;20051;-65
2023/04/06 02:59:35;;;;;;;13.10;7.72;;;;;;;3.55;55.49;99426.56;3157719;28;20051;-65
2023/04/06 03:01:07;;;;;;;15.80;8.27;;;;;;;3.53;55.51;99424.91;3166154;28;20179;-66
2023/04/06 03:02:38;;;;;;;12.30;7.43;;;;;;;3.52;55.48;99421.47;3166029;28;20613;-66
2023/04/06 03:04:10;;;;;;;11.82;7.15;;;;;;;3.51;55.59;99429.22;3166090;28;20468;-66
2023/04/06 03:05:42;;;;;;;12.70;7.70;;;;;;;3.52;55.70;99423.19;3166139;28;20051;-66
2023/04/06 03:07:13;;;;;;;15.38;8.00;;;;;;;3.53;55.51;99435.19;3165970;28;20450;-66
2023/04/06 03:08:45;;;;;;;12.05;7.53;;;;;;;3.52;55.56;99421.47;3166336;28;20101;-66
2023/04/06 03:10:18;;;;;;;10.15;7.07;;;;;;;3.54;55.57;99427.44;3165069;28;20076;-66
2023/04/06 03:11:50;;;;;;;11.15;6.60;;;;;;;3.55;55.66;99423.13;3165557;28;20055;-66
2023/04/06 03:13:21;;;;;;;11.52;7.30;;;;;;;3.53;55.68;99425.75;3159112;28;20047;-66
2023/04/06 03:14:53;;;;;;;11.77;6.78;;;;;;;3.53;55.82;99422.31;3164059;28;20139;-66
2023/04/06 03:16:24;;;;;;;11.18;6.63;;;;;;;3.52;55.68;99428.34;3166008;28;20059;-66
2023/04/06 03:17:56;;;;;;;11.60;6.85;;;;;;;3.50;55.60;99427.53;3165894;28;20059;-66
2023/04/06 03:19:27;;;;;;;12.52;7.35;;;;;;;3.49;55.63;99431.84;3165681;28;20047;-66
2023/04/06 03:21:00;;;;;;;11.70;7.22;;;;;;;3.50;55.86;99435.25;3161406;28;20062;-66
2023/04/06 03:22:31;;;;;;;11.40;7.07;;;;;;;3.49;55.68;99424.13;3165987;28;20043;-67
2023/04/06 03:24:04;;;;;;;12.63;7.90;;;;;;;3.49;55.67;99429.28;3165603;28;20512;-66
2023/04/06 03:25:39;;;;;;;12.35;7.38;;;;;;;3.49;55.69;99424.13;3166119;28;20043;-66
2023/04/06 03:27:11;;;;;;;13.98;7.70;;;;;;;3.47;55.79;99431.03;3166195;28;20628;-66
2023/04/06 03:28:43;;;;;;;13.65;7.65;;;;;;;3.47;55.94;99428.47;3160327;28;20058;-66
2023/04/06 03:30:16;;;;;;;12.35;7.90;;;;;;;3.48;56.00;99431.88;3166371;28;20066;-66
2023/04/06 03:31:47;;;;;;;14.60;8.07;;;;;;;3.48;55.86;99431.88;3166269;28;20587;-67
2023/04/06 03:33:19;;;;;;;13.52;7.25;;;;;;;3.48;55.90;99432.72;3163447;28;20044;-67
2023/04/06 03:34:51;;;;;;;14.63;7.53;;;;;;;3.46;56.02;99428.47;3163633;28;20051;-67
2023/04/06 03:36:23;;;;;;;13.73;7.85;;;;;;;3.45;55.93;99434.50;3157073;28;20048;-67
2023/04/06 03:37:55;;;;;;;15.55;8.38;;;;;;;3.46;56.09;99433.63;3165830;28;20120;-67
2023/04/06 03:39:26;;;;;;;13.77;7.90;;;;;;;3.45;55.97;99437.94;3166093;28;20056;-67
2023/04/06 03:41:00;;;;;;;13.50;7.68;;;;;;;3.41;56.04;99432.00;3162447;27;20052;-67
2023/04/06 03:42:32;;;;;;;14.70;7.78;;;;;;;3.31;56.08;99422.81;3165488;28;20048;-68
2023/04/06 03:44:04;;;;;;;14.23;6.97;;;;;;;3.39;56.25;99445.78;3165534;28;20070;-67
2023/04/06 03:45:35;;;;;;;14.00;7.88;;;;;;;3.39;56.33;99446.63;3165244;28;20047;-66
2023/04/06 03:47:08;;;;;;;14.90;7.85;;;;;;;3.40;56.47;99435.47;3165542;28;20150;-66
2023/04/06 03:48:40;;;;;;;12.35;7.45;;;;;;;3.42;56.45;99431.13;3165323;28;20048;-66
2023/04/06 03:50:12;;;;;;;11.80;7.40;;;;;;;3.44;56.42;99436.25;3165655;28;20047;-67
2023/04/06 03:51:44;;;;;;;11.77;7.35;;;;;;;3.45;56.33;99437.94;3165172;28;20124;-66
2023/04/06 03:53:15;;;;;;;11.35;6.78;;;;;;;3.43;56.44;99431.97;3165760;28;20484;-67
2023/04/06 03:54:47;;;;;;;13.38;7.60;;;;;;;3.42;56.38;99440.56;3165579;28;20061;-67
2023/04/06 03:56:20;;;;;;;13.35;7.68;;;;;;;3.42;56.58;99433.69;3165591;27;20047;-67
2023/04/06 03:57:52;;;;;;;14.40;8.05;;;;;;;3.43;56.56;99434.53;3162429;28;20162;-67
2023/04/06 03:59:23;;;;;;;11.38;7.30;;;;;;;3.46;56.63;99431.91;3156656;28;20370;-67
2023/04/06 04:00:55;;;;;;;15.25;7.32;;;;;;;3.49;56.57;99434.44;3165534;28;20177;-67
2023/04/06 04:02:27;;;;;;;11.25;6.85;;;;;;;3.49;56.43;99437.00;3165663;28;20043;-67
2023/04/06 04:03:59;;;;;;;14.15;7.88;;;;;;;3.52;56.56;99443.78;3165538;28;20059;-66
2023/04/06 04:05:31;;;;;;;14.20;8.00;;;;;;;3.53;56.40;99435.19;3165267;28;20056;-67
2023/04/06 04:07:03;;;;;;;13.43;7.68;;;;;;;3.53;56.43;99433.47;3152982;28;20048;-68
2023/04/06 04:08:35;;;;;;;12.45;6.80;;;;;;;3.55;56.34;99433.41;3164714;28;20086;-67
2023/04/06 04:10:07;;;;;;;13.15;7.45;;;;;;;3.56;56.39;99432.56;3165382;28;20058;-67
2023/04/06 04:11:41;;;;;;;12.93;7.82;;;;;;;3.56;56.31;99425.66;3165083;28;20047;-69
2023/04/06 04:13:13;;;;;;;15.48;8.20;;;;;;;3.57;56.46;99429.94;3158926;28;20050;-67
2023/04/06 04:14:44;;;;;;;12.63;7.28;;;;;;;3.58;56.36;99431.63;3161754;28;20055;-69
2023/04/06 04:16:16;;;;;;;16.90;7.82;;;;;;;3.59;56.39;99429.91;3165590;28;20055;-69
2023/04/06 04:18:12;;;;;;;13.20;7.60;;;;;;;3.62;56.24;99428.09;3165357;28;20051;-70
2023/04/06 04:19:44;;;;;;;11.93;7.00;;;;;;;3.62;56.27;99429.84;3147301;28;20047;-71
2023/04/06 04:21:16;;;;;;;14.77;7.25;;;;;;;3.60;56.19;99418.72;3162124;28;20859;-70
2023/04/06 04:22:47;;;;;;;12.27;7.10;;;;;;;3.67;56.08;99429.72;3165164;28;20136;-69
2023/04/06 04:24:19;;;;;;;11.35;6.45;;;;;;;3.69;56.19;99428.81;3165166;28;20054;-69
2023/04/06 04:25:51;;;;;;;19.27;10.23;;;;;;;3.74;55.90;99428.72;3164722;28;20054;-66
2023/04/06 04:27:24;;;;;;;25.98;12.57;;;;;;;3.80;55.95;99431.97;3164619;28;20047;-69
2023/04/06 04:28:56;;;;;;;;;;;;;;;3.82;55.95;99434.53;3160516;28;20170;-67
2023/04/06 04:30:28;;;;;;;15.35;6.70;;;;;;;3.83;55.92;99437.06;3164300;28;19932;-71
2023/04/06 04:32:00;;;;;;;12.57;7.35;;;;;;;3.85;55.67;99427.56;3165144;28;20291;-64
2023/04/06 04:33:32;;;;;;;11.82;6.65;;;;;;;3.90;55.54;99429.19;3164903;28;20116;-63
2023/04/06 04:35:03;;;;;;;12.50;6.03;;;;;;;3.91;55.42;99423.16;3164688;28;20047;-61
2023/04/06 04:36:35;;;;;;;17.77;9.50;;;;;;;3.93;55.44;99418.81;3164652;28;20151;-62
2023/04/06 04:38:06;;;;;;;13.10;7.82;;;;;;;3.97;55.37;99413.56;3165278;28;20054;-65
2023/04/06 04:39:38;;;;;;;104.13;45.92;;;;;;;4.04;55.44;99419.41;3164672;28;20144;-64
2023/04/06 04:41:10;;;;;;;15.73;8.65;;;;;;;4.09;55.25;99413.25;3160323;28;20121;-63
2023/04/06 04:42:43;;;;;;;16.60;7.82;;;;;;;4.13;55.17;99410.59;3163891;28;20051;-65
2023/04/06 04:44:15;;;;;;;;;;;;;;;4.11;55.09;99415.78;3165079;28;20063;-65
2023/04/06 04:45:47;;;;;;;11.40;7.32;;;;;;;4.12;54.94;99419.22;3164879;28;20003;-68
2023/04/06 04:47:19;;;;;;;10.45;7.00;;;;;;;4.14;54.83;99412.28;3162864;28;20055;-65
2023/04/06 04:48:51;;;;;;;14.05;7.00;;;;;;;4.16;54.94;99426.81;3160799;28;20497;-61
2023/04/06 04:50:22;;;;;;;10.75;7.28;;;;;;;4.19;54.77;99419.00;3163203;28;20051;-63
2023/04/06 04:51:54;;;;;;;12.07;7.30;;;;;;;4.19;54.65;99424.16;3164297;28;20055;-62
2023/04/06 04:53:27;;;;;;;12.50;7.07;;;;;;;4.21;54.60;99417.25;3164529;28;20291;-64
2023/04/06 04:54:59;;;;;;;11.55;6.75;;;;;;;4.21;54.46;99412.09;3164326;27;20059;-64
2023/04/06 04:56:30;;;;;;;11.45;6.45;;;;;;;4.24;54.56;99418.91;3164201;28;20047;-64
2023/04/06 04:58:03;;;;;;;15.05;6.88;;;;;;;4.25;54.44;99405.13;3160039;28;20048;-65
2023/04/06 04:59:35;;;;;;;;;;;;;;;4.24;54.67;99424.91;3157681;28;20053;-65
2023/04/06 05:01:07;;;;;;;15.63;6.65;;;;;;;4.25;54.39;99416.28;3164671;28;19995;-63
2023/04/06 05:02:39;;;;;;;12.27;6.57;;;;;;;4.28;54.41;99412.78;3164523;28;20434;-64
2023/04/06 05:04:11;;;;;;;11.52;6.93;;;;;;;4.30;54.27;99406.69;3164447;28;20056;-63
2023/04/06 05:05:43;;;;;;;13.48;6.45;;;;;;;4.32;54.13;99411.84;3164438;28;20138;-64
2023/04/06 05:07:18;;;;;;;12.40;6.60;;;;;;;4.34;54.09;99410.88;3164467;28;20055;-65
2023/04/06 05:08:50;;;;;;;13.20;6.38;;;;;;;4.36;54.08;99400.53;3164569;28;20599;-64
2023/04/06 05:10:22;;;;;;;13.13;6.35;;;;;;;4.39;54.01;99405.63;3151860;28;20535;-67
2023/04/06 05:11:54;;;;;;;9.48;6.20;;;;;;;4.42;53.80;99402.13;3159636;28;20047;-64
2023/04/06 05:13:28;;;;;;;12.23;6.75;;;;;;;4.43;53.70;99408.94;3157614;28;20055;-63
2023/04/06 05:15:00;;;;;;;11.52;5.78;;;;;;;4.32;53.64;99378.31;3162418;28;20074;-64
2023/04/06 05:16:32;;;;;;;10.52;6.65;;;;;;;4.51;53.69;99392.38;3164487;28;20056;-65
2023/04/06 05:18:03;;;;;;;11.05;6.50;;;;;;;4.52;53.35;99399.22;3164612;28;20059;-69
2023/04/06 05:19:35;;;;;;;14.48;6.57;;;;;;;4.55;53.48;99394.03;3163341;28;20080;-64
2023/04/06 05:21:07;;;;;;;12.27;7.32;;;;;;;4.50;53.24;99384.72;3159389;28;20138;-63
2023/04/06 05:22:39;;;;;;;12.20;5.90;;;;;;;4.65;53.15;99401.50;3164276;28;20048;-64
2023/04/06 05:24:11;;;;;;;12.30;6.07;;;;;;;4.66;52.88;99400.59;3164141;28;20071;-62
2023/04/06 05:25:44;;;;;;;11.27;6.40;;;;;;;4.68;52.76;99401.41;3164315;28;20051;-64
2023/04/06 05:27:16;;;;;;;10.65;6.22;;;;;;;4.69;52.79;99406.50;3163028;28;20455;-62
2023/04/06 05:28:50;;;;;;;11.95;6.78;;;;;;;4.72;52.74;99390.97;3158043;28;20158;-63
2023/04/06 05:30:22;;;;;;;12.20;7.15;;;;;;;4.75;52.55;99397.78;3164487;28;20048;-63
2023/04/06 05:31:54;;;;;;;14.93;7.22;;;;;;;4.77;52.76;99394.25;3162440;28;20061;-64
2023/04/06 05:33:26;;;;;;;10.65;6.82;;;;;;;4.78;52.58;99401.09;3161256;28;20079;-63
2023/04/06 05:34:58;;;;;;;15.25;8.35;;;;;;;4.82;52.73;99401.00;3157577;28;20090;-62
2023/04/06 05:36:31;;;;;;;12.00;7.10;;;;;;;4.95;52.67;99407.53;3158303;28;20051;-62
2023/04/06 05:38:04;;;;;;;11.93;6.72;;;;;;;5.03;52.56;99403.00;3164140;28;20051;-61
2023/04/06 05:39:36;;;;;;;10.43;6.20;;;;;;;5.09;52.41;99405.41;3163961;28;20117;-63
2023/04/06 05:41:08;;;;;;;10.90;6.47;;;;;;;5.16;52.40;99394.00;3163822;28;20061;-62
2023/04/06 05:42:40;;;;;;;11.25;6.53;;;;;;;5.37;52.46;99399.41;3161302;28;20355;-62
2023/04/06 05:44:14;;;;;;;8.73;6.03;;;;;;;5.68;52.01;99395.00;3154424;28;20439;-63
2023/04/06 05:45:46;;;;;;;;;;;;;;;5.79;51.65;99389.47;3163871;28;20083;-63
2023/04/06 05:47:18;;;;;;;25.20;11.57;;;;;;;5.84;51.30;99390.16;3162621;28;19928;-65
2023/04/06 05:48:50;;;;;;;13.48;7.75;;;;;;;6.26;51.30;99384.50;3164615;28;20057;-63
2023/04/06 05:50:22;;;;;;;12.30;6.55;;;;;;;6.98;50.85;99387.13;3164036;28;20526;-63
2023/04/06 05:51:53;;;;;;;11.38;6.03;;;;;;;7.65;49.12;99398.38;3164278;28;20059;-64
2023/04/06 05:53:28;;;;;;;12.38;6.20;;;;;;;8.17;47.91;99388.50;3164447;28;20174;-63
2023/04/06 05:55:00;;;;;;;9.90;5.60;;;;;;;8.57;46.82;99386.81;3164152;28;20828;-61
2023/04/06 05:56:32;;;;;;;9.93;5.32;;;;;;;9.12;46.02;99384.34;3164308;28;20052;-61
2023/04/06 05:58:05;;;;;;;10.65;5.65;;;;;;;9.74;44.85;99374.53;3164076;28;20071;-62
2023/04/06 05:59:39;;;;;;;11.50;5.00;;;;;;;10.08;42.17;99384.09;3163595;28;20577;-60
2023/04/06 06:01:11;;;;;;;8.40;4.97;;;;;;;9.84;41.82;99377.50;3164547;28;20309;-62
2023/04/06 06:02:42;;;;;;;8.30;5.18;;;;;;;9.69;41.95;99372.13;3162559;28;20159;-62
2023/04/06 06:04:14;;;;;;;9.02;4.88;;;;;;;9.73;42.02;99368.47;3164165;28;20522;-61
2023/04/06 06:05:46;;;;;;;8.63;5.40;;;;;;;10.08;41.73;99370.25;3163004;28;20048;-63
2023/04/06 06:07:18;;;;;;;9.85;4.75;;;;;;;10.46;41.15;99368.34;3163965;28;20052;-61
2023/04/06 06:08:51;;;;;;;9.15;5.35;;;;;;;10.61;40.08;99361.50;3164613;28;20134;-61
2023/04/06 06:10:23;;;;;;;8.50;5.20;;;;;;;10.58;40.14;99367.69;3164368;28;20066;-64
2023/04/06 06:11:55;;;;;;;9.45;5.45;;;;;;;10.73;40.19;99365.22;3164153;28;20554;-64
2023/04/06 06:13:27;;;;;;;11.13;5.93;;;;;;;10.73;39.24;99360.00;3158065;28;20075;-63
2023/04/06 06:15:00;;;;;;;8.20;5.72;;;;;;;10.46;39.85;99363.13;3160650;28;20059;-64
2023/04/06 06:16:32;;;;;;;9.55;5.65;;;;;;;9.98;40.21;99355.09;3161736;28;20509;-64
2023/04/06 06:18:04;;;;;;;7.72;4.88;;;;;;;9.30;40.88;99361.88;3169687;28;20043;-63
2023/04/06 06:19:36;;;;;;;12.02;6.45;;;;;;;8.82;42.19;99353.69;3168084;28;20048;-65
2023/04/06 06:21:09;;;;;;;11.05;5.82;;;;;;;8.49;42.76;99348.25;3160090;28;20096;-65
2023/04/06 06:22:41;;;;;;;11.85;7.50;;;;;;;8.25;43.40;99352.69;3168279;28;20047;-65
2023/04/06 06:24:13;;;;;;;11.48;6.43;;;;;;;8.12;43.91;99351.53;3169216;28;20477;-66
2023/04/06 06:25:45;;;;;;;12.25;5.50;;;;;;;7.97;44.19;99350.41;3168581;28;20199;-65
2023/04/06 06:27:17;;;;;;;9.35;5.57;;;;;;;7.84;44.43;99351.81;3168972;28;20131;-68
2023/04/06 06:28:49;;;;;;;7.20;5.03;;;;;;;7.73;44.66;99349.69;3166570;28;20058;-65
2023/04/06 06:30:22;;;;;;;8.18;5.10;;;;;;;7.69;44.98;99350.69;3169100;28;20040;-63
2023/04/06 06:31:54;;;;;;;;;;;;;;;7.65;45.12;99351.72;3169444;28;20153;-65
2023/04/06 06:33:26;;;;;;;9.90;5.60;;;;;;;7.64;45.46;99355.25;3169048;28;20358;-66
2023/04/06 06:34:58;;;;;;;10.57;5.63;;;;;;;7.67;45.40;99368.06;3169401;28;20591;-66
2023/04/06 06:36:31;;;;;;;10.05;5.65;;;;;;;7.71;45.47;99364.44;3169457;28;20482;-65
2023/04/06 06:38:03;;;;;;;8.27;5.18;;;;;;;7.70;45.49;99357.59;3168967;28;20044;-64
2023/04/06 06:39:35;;;;;;;11.13;5.03;;;;;;;7.70;44.96;99365.38;3169031;28;20051;-65
2023/04/06 06:41:07;;;;;;;8.32;5.00;;;;;;;7.63;44.94;99374.28;3166240;28;20100;-63
2023/04/06 06:42:39;;;;;;;8.23;5.13;;;;;;;7.52;44.74;99364.34;3168651;28;20051;-64
2023/04/06 06:44:12;;;;;;;8.32;4.72;;;;;;;7.53;45.06;99355.66;3168742;28;20040;-65
2023/04/06 06:45:52;;;;;;;15.70;5.85;;;;;;;7.56;45.26;99341.75;3158555;28;20114;-67
2023/04/06 06:47:25;;;;;;;8.45;4.97;;;;;;;7.69;44.88;99361.94;3158836;28;20393;-67
2023/04/06 06:49:12;;;;;;;9.95;5.45;;;;;;;7.77;44.88;99364.19;3171720;28;20055;-66
2023/04/06 06:51:17;;;;;;;8.55;5.35;;;;;;;7.81;44.88;99350.22;3171117;28;20528;-62
2023/04/06 06:53:36;;;;;;;8.90;4.55;;;;;;;7.96;44.65;99344.41;3171335;28;20070;-65
2023/04/06 06:55:10;;;;;;;8.40;5.25;;;;;;;8.09;44.88;99359.44;3163979;28;20047;-64
2023/04/06 06:57:00;;;;;;;9.30;4.88;;;;;;;8.27;44.33;99348.28;3171272;28;20098;-64
2023/04/06 06:58:40;;;;;;;13.32;5.82;;;;;;;8.50;44.57;99352.50;3165807;28;20101;-64
2023/04/06 07:00:24;;;;;;;14.05;5.65;;;;;;;8.82;44.30;99342.47;3171605;28;20058;-61
2023/04/06 07:01:57;;;;;;;11.80;5.20;;;;;;;9.17;43.98;99332.19;3171122;28;20452;-62
2023/04/06 07:03:30;;;;;;;9.10;5.28;;;;;;;9.60;43.63;99349.19;3171175;28;20058;-62
2023/04/06 07:05:02;;;;;;;11.25;5.50;;;;;;;9.94;42.90;99347.53;3171412;28;20131;-63
2023/04/06 07:06:37;;;;;;;10.20;5.75;;;;;;;10.13;42.16;99347.44;3171358;28;20126;-64
2023/04/06 07:08:10;;;;;;;12.43;5.90;;;;;;;10.29;41.57;99335.34;3171303;28;20080;-65
2023/04/06 07:09:42;;;;;;;9.05;5.32;;;;;;;10.35;40.98;99348.09;3170742;27;20108;-65
2023/04/06 07:11:15;;;;;;;8.70;5.47;;;;;;;10.35;40.76;99355.03;3168114;28;20053;-64
2023/04/06 07:12:47;;;;;;;8.63;5.13;;;;;;;10.37;41.11;99345.38;3165864;28;20142;-63
2023/04/06 07:14:19;;;;;;;8.70;5.00;;;;;;;10.46;40.53;99347.50;3160596;28;20097;-64
2023/04/06 07:15:54;;;;;;;8.32;4.97;;;;;;;10.50;40.48;99348.19;3170974;28;20505;-64
2023/04/06 07:17:27;;;;;;;9.93;5.68;;;;;;;10.56;40.32;99345.25;3170657;28;20051;-63
2023/04/06 07:19:00;;;;;;;9.52;5.22;;;;;;;10.57;40.07;99347.78;3169906;28;20550;-67